Time,TemperatureF,DewpointF,PressureIn,WindDirection,WindDirectionDegrees,WindSpeedMPH,WindSpeedGustMPH,Humidity,HourlyPrecipIn,Conditions,Clouds,dailyrainin,SoftwareType,DateUTC
2013-05-20 00:03:00,61.8,61.0,29.58,South,181,0.0,-999.0,97,-99.99,,,0.01,weatherlink.com 1.10,2013-05-20 05:03:00,
2013-05-20 00:18:00,62.0,61.0,29.57,SSW,193,0.0,-999.0,97,-99.99,,,0.06,weatherlink.com 1.10,2013-05-20 05:18:00,
2013-05-20 00:33:00,61.8,61.0,29.53,SSW,193,0.0,-999.0,97,-99.99,,,0.10,weatherlink.com 1.10,2013-05-20 05:33:00,
2013-05-20 00:48:00,61.8,61.0,29.49,SSW,193,0.0,-999.0,97,-99.99,,,0.13,weatherlink.com 1.10,2013-05-20 05:48:00,
2013-05-20 01:03:00,61.8,61.0,29.49,SSW,193,0.0,-999.0,97,-99.99,,,0.14,weatherlink.com 1.10,2013-05-20 06:03:00,
2013-05-20 01:18:00,61.8,61.0,29.53,SSW,193,0.0,-999.0,97,-99.99,,,0.19,weatherlink.com 1.10,2013-05-20 06:18:00,
2013-05-20 01:33:00,61.8,61.0,29.51,SSW,193,0.0,-999.0,97,-99.99,,,0.26,weatherlink.com 1.10,2013-05-20 06:33:00,
2013-05-20 01:48:00,62.0,61.0,29.51,SSW,193,1.0,-999.0,97,-99.99,,,0.35,weatherlink.com 1.10,2013-05-20 06:48:00,
2013-05-20 02:03:00,62.1,61.0,29.53,SW,221,3.0,-999.0,97,-99.99,,,0.41,weatherlink.com 1.10,2013-05-20 07:03:00,
2013-05-20 02:18:00,62.1,62.0,29.52,SW,221,0.0,-999.0,98,-99.99,,,0.43,weatherlink.com 1.10,2013-05-20 07:18:00,
2013-05-20 02:33:00,62.1,62.0,29.50,SW,221,0.0,-999.0,98,-99.99,,,0.43,weatherlink.com 1.10,2013-05-20 07:33:00,
2013-05-20 02:48:00,62.1,62.0,29.48,SW,221,0.0,-999.0,98,-99.99,,,0.44,weatherlink.com 1.10,2013-05-20 07:48:00,
2013-05-20 03:03:00,61.8,61.0,29.47,SW,221,0.0,-999.0,97,-99.99,,,0.44,weatherlink.com 1.10,2013-05-20 08:03:00,
2013-05-20 03:18:00,61.5,61.0,29.47,SW,221,0.0,-999.0,97,-99.99,,,0.44,weatherlink.com 1.10,2013-05-20 08:18:00,
2013-05-20 03:33:00,61.2,60.0,29.46,SW,221,0.0,-999.0,97,-99.99,,,0.44,weatherlink.com 1.10,2013-05-20 08:33:00,
2013-05-20 03:48:00,60.9,60.0,29.45,SW,221,0.0,-999.0,97,-99.99,,,0.44,weatherlink.com 1.10,2013-05-20 08:48:00,
2013-05-20 04:03:00,60.5,60.0,29.45,SW,221,0.0,-999.0,97,-99.99,,,0.44,weatherlink.com 1.10,2013-05-20 09:03:00,
2013-05-20 04:18:00,60.1,59.0,29.45,SW,221,0.0,-999.0,97,-99.99,,,0.44,weatherlink.com 1.10,2013-05-20 09:18:00,
2013-05-20 04:33:00,59.9,59.0,29.47,WSW,248,1.0,-999.0,97,-99.99,,,0.44,weatherlink.com 1.10,2013-05-20 09:33:00,
2013-05-20 04:48:00,60.2,60.0,29.46,South,182,0.0,-999.0,98,-99.99,,,0.44,weatherlink.com 1.10,2013-05-20 09:48:00,
2013-05-20 05:03:00,60.2,60.0,29.44,South,182,0.0,-999.0,98,-99.99,,,0.44,weatherlink.com 1.10,2013-05-20 10:03:00,
2013-05-20 05:19:00,60.1,60.0,29.45,South,182,0.0,-999.0,98,-99.99,,,0.44,weatherlink.com 1.10,2013-05-20 10:19:00,
2013-05-20 05:34:00,59.9,59.0,29.46,South,182,0.0,-999.0,98,-99.99,,,0.44,weatherlink.com 1.10,2013-05-20 10:34:00,
2013-05-20 05:49:00,60.4,60.0,29.46,SW,234,3.0,-999.0,98,-99.99,,,0.44,weatherlink.com 1.10,2013-05-20 10:49:00,
2013-05-20 06:04:00,60.7,60.0,29.46,SW,223,6.0,-999.0,98,-99.99,,,0.44,weatherlink.com 1.10,2013-05-20 11:04:00,
2013-05-20 06:19:00,60.9,60.0,29.48,South,181,2.0,-999.0,98,-99.99,,,0.44,weatherlink.com 1.10,2013-05-20 11:19:00,
2013-05-20 06:34:00,61.0,61.0,29.49,WSW,237,0.0,-999.0,98,-99.99,,,0.44,weatherlink.com 1.10,2013-05-20 11:34:00,
2013-05-20 06:49:00,61.2,61.0,29.50,WSW,245,3.0,-999.0,98,-99.99,,,0.44,weatherlink.com 1.10,2013-05-20 11:49:00,
2013-05-20 07:04:00,61.5,61.0,29.50,South,182,2.0,-999.0,98,-99.99,,,0.44,weatherlink.com 1.10,2013-05-20 12:04:00,
2013-05-20 07:19:00,61.5,61.0,29.51,SSW,209,0.0,-999.0,98,-99.99,,,0.44,weatherlink.com 1.10,2013-05-20 12:19:00,
2013-05-20 07:34:00,61.6,61.0,29.52,South,190,0.0,-999.0,98,-99.99,,,0.44,weatherlink.com 1.10,2013-05-20 12:34:00,
2013-05-20 07:49:00,61.8,61.0,29.53,SSE,150,0.0,-999.0,98,-99.99,,,0.44,weatherlink.com 1.10,2013-05-20 12:49:00,
2013-05-20 08:04:00,62.1,62.0,29.53,SW,231,0.0,-999.0,98,-99.99,,,0.44,weatherlink.com 1.10,2013-05-20 13:04:00,
2013-05-20 08:19:00,62.3,62.0,29.53,SW,225,0.0,-999.0,98,-99.99,,,0.44,weatherlink.com 1.10,2013-05-20 13:19:00,
2013-05-20 08:34:00,62.9,62.0,29.53,SE,128,0.0,-999.0,98,-99.99,,,0.44,weatherlink.com 1.10,2013-05-20 13:34:00,
2013-05-20 08:49:00,63.2,62.0,29.53,South,171,0.0,-999.0,97,-99.99,,,0.44,weatherlink.com 1.10,2013-05-20 13:49:00,
2013-05-20 09:04:00,63.1,62.0,29.53,SSW,213,0.0,-999.0,97,-99.99,,,0.44,weatherlink.com 1.10,2013-05-20 14:04:00,
2013-05-20 09:19:00,63.2,62.0,29.53,SSW,212,0.0,-999.0,96,-99.99,,,0.44,weatherlink.com 1.10,2013-05-20 14:19:00,
2013-05-20 09:34:00,63.7,63.0,29.53,South,176,0.0,-999.0,96,-99.99,,,0.44,weatherlink.com 1.10,2013-05-20 14:34:00,
2013-05-20 09:49:00,64.0,63.0,29.52,SSW,206,0.0,-999.0,95,-99.99,,,0.44,weatherlink.com 1.10,2013-05-20 14:49:00,
2013-05-20 10:04:00,64.2,62.0,29.53,SW,217,0.0,-999.0,93,-99.99,,,0.44,weatherlink.com 1.10,2013-05-20 15:04:00,
2013-05-20 10:19:00,64.3,61.0,29.53,East,96,2.0,-999.0,90,-99.99,,,0.44,weatherlink.com 1.10,2013-05-20 15:19:00,
2013-05-20 10:34:00,64.8,61.0,29.53,South,175,0.0,-999.0,88,-99.99,,,0.44,weatherlink.com 1.10,2013-05-20 15:34:00,
2013-05-20 11:04:00,67.1,62.0,29.52,ESE,115,4.0,-999.0,83,-99.99,,,0.44,weatherlink.com 1.10,2013-05-20 16:04:00,
2013-05-20 11:20:00,69.3,63.0,29.51,SW,232,1.0,-999.0,80,-99.99,,,0.44,weatherlink.com 1.10,2013-05-20 16:20:00,
2013-05-20 11:35:00,71.3,63.0,29.51,ESE,107,2.0,-999.0,76,-99.99,,,0.44,weatherlink.com 1.10,2013-05-20 16:35:00,
2013-05-20 11:50:00,72.1,61.0,29.50,SSW,213,3.0,-999.0,69,-99.99,,,0.44,weatherlink.com 1.10,2013-05-20 16:50:00,
2013-05-20 12:05:00,73.0,62.0,29.50,SW,222,4.0,-999.0,69,-99.99,,,0.44,weatherlink.com 1.10,2013-05-20 17:05:00,
2013-05-20 12:20:00,74.4,62.0,29.50,SW,232,5.0,-999.0,65,-99.99,,,0.44,weatherlink.com 1.10,2013-05-20 17:20:00,
2013-05-20 12:35:00,74.4,60.0,29.50,SW,225,3.0,-999.0,61,-99.99,,,0.44,weatherlink.com 1.10,2013-05-20 17:35:00,
2013-05-20 12:50:00,74.2,59.0,29.50,SE,146,0.0,-999.0,59,-99.99,,,0.44,weatherlink.com 1.10,2013-05-20 17:50:00,
2013-05-20 13:05:00,73.2,59.0,29.49,SSW,204,9.0,-999.0,61,-99.99,,,0.44,weatherlink.com 1.10,2013-05-20 18:05:00,
2013-05-20 13:20:00,73.0,60.0,29.49,SW,230,1.0,-999.0,63,-99.99,,,0.44,weatherlink.com 1.10,2013-05-20 18:20:00,
2013-05-20 13:35:00,73.7,59.0,29.49,West,265,0.0,-999.0,60,-99.99,,,0.44,weatherlink.com 1.10,2013-05-20 18:35:00,
2013-05-20 13:50:00,75.1,57.0,29.49,SW,231,11.0,-999.0,54,-99.99,,,0.44,weatherlink.com 1.10,2013-05-20 18:50:00,
2013-05-20 14:05:00,75.6,59.0,29.49,SSW,209,6.0,-999.0,56,-99.99,,,0.44,weatherlink.com 1.10,2013-05-20 19:05:00,
2013-05-20 14:20:00,75.3,57.0,29.50,South,170,14.0,-999.0,53,-99.99,,,0.44,weatherlink.com 1.10,2013-05-20 19:20:00,
2013-05-20 14:35:00,76.3,56.0,29.49,South,180,5.0,-999.0,50,-99.99,,,0.44,weatherlink.com 1.10,2013-05-20 19:35:00,
2013-05-20 14:50:00,76.1,57.0,29.49,SSE,161,2.0,-999.0,52,-99.99,,,0.44,weatherlink.com 1.10,2013-05-20 19:50:00,
2013-05-20 15:05:00,75.4,56.0,29.49,WSW,258,2.0,-999.0,52,-99.99,,,0.44,weatherlink.com 1.10,2013-05-20 20:05:00,
2013-05-20 15:20:00,75.3,57.0,29.50,SSW,209,9.0,-999.0,53,-99.99,,,0.44,weatherlink.com 1.10,2013-05-20 20:20:00,
2013-05-20 15:35:00,75.1,57.0,29.50,SW,217,3.0,-999.0,54,-99.99,,,0.44,weatherlink.com 1.10,2013-05-20 20:35:00,
2013-05-20 15:50:00,74.6,60.0,29.50,SE,146,1.0,-999.0,61,-99.99,,,0.44,weatherlink.com 1.10,2013-05-20 20:50:00,
2013-05-20 16:06:00,74.7,59.0,29.50,SSW,193,4.0,-999.0,59,-99.99,,,0.44,weatherlink.com 1.10,2013-05-20 21:06:00,
2013-05-20 16:21:00,75.4,58.0,29.50,SSW,194,3.0,-999.0,56,-99.99,,,0.44,weatherlink.com 1.10,2013-05-20 21:21:00,
2013-05-20 16:36:00,75.3,59.0,29.50,WSW,252,5.0,-999.0,57,-99.99,,,0.44,weatherlink.com 1.10,2013-05-20 21:36:00,
2013-05-20 16:51:00,75.3,57.0,29.50,SSE,150,2.0,-999.0,54,-99.99,,,0.44,weatherlink.com 1.10,2013-05-20 21:51:00,
2013-05-20 17:06:00,75.1,57.0,29.50,West,268,0.0,-999.0,54,-99.99,,,0.44,weatherlink.com 1.10,2013-05-20 22:06:00,
2013-05-20 17:21:00,75.1,58.0,29.50,SSE,165,5.0,-999.0,55,-99.99,,,0.44,weatherlink.com 1.10,2013-05-20 22:21:00,
2013-05-20 17:36:00,75.4,56.0,29.50,South,171,6.0,-999.0,52,-99.99,,,0.44,weatherlink.com 1.10,2013-05-20 22:36:00,
2013-05-20 17:51:00,75.4,56.0,29.51,South,185,4.0,-999.0,51,-99.99,,,0.44,weatherlink.com 1.10,2013-05-20 22:51:00,
2013-05-20 18:06:00,75.4,57.0,29.51,SSW,209,7.0,-999.0,54,-99.99,,,0.44,weatherlink.com 1.10,2013-05-20 23:06:00,
2013-05-20 18:21:00,75.6,57.0,29.51,SSW,195,6.0,-999.0,53,-99.99,,,0.44,weatherlink.com 1.10,2013-05-20 23:21:00,
2013-05-20 18:36:00,75.1,57.0,29.52,West,263,1.0,-999.0,53,-99.99,,,0.44,weatherlink.com 1.10,2013-05-20 23:36:00,
2013-05-20 18:51:00,74.0,56.0,29.52,WSW,246,1.0,-999.0,54,-99.99,,,0.44,weatherlink.com 1.10,2013-05-20 23:51:00,
2013-05-20 19:07:00,73.2,56.0,29.52,SW,218,8.0,-999.0,55,-99.99,,,0.44,weatherlink.com 1.10,2013-05-21 00:07:00,
2013-05-20 19:21:00,72.5,56.0,29.53,WNW,292,1.0,-999.0,56,-99.99,,,0.44,weatherlink.com 1.10,2013-05-21 00:21:00,
2013-05-20 19:36:00,71.8,55.0,29.52,SW,224,2.0,-999.0,56,-99.99,,,0.44,weatherlink.com 1.10,2013-05-21 00:36:00,
2013-05-20 19:51:00,71.3,54.0,29.52,West,266,0.0,-999.0,55,-99.99,,,0.44,weatherlink.com 1.10,2013-05-21 00:51:00,
2013-05-20 20:06:00,70.8,54.0,29.52,South,175,0.0,-999.0,56,-99.99,,,0.44,weatherlink.com 1.10,2013-05-21 01:06:00,
2013-05-20 20:21:00,69.9,55.0,29.53,South,175,0.0,-999.0,59,-99.99,,,0.44,weatherlink.com 1.10,2013-05-21 01:21:00,
2013-05-20 20:36:00,68.4,55.0,29.52,South,175,0.0,-999.0,63,-99.99,,,0.44,weatherlink.com 1.10,2013-05-21 01:36:00,
2013-05-20 20:51:00,66.4,55.0,29.52,South,175,0.0,-999.0,68,-99.99,,,0.44,weatherlink.com 1.10,2013-05-21 01:51:00,
2013-05-20 21:07:00,64.8,55.0,29.53,South,175,0.0,-999.0,71,-99.99,,,0.44,weatherlink.com 1.10,2013-05-21 02:07:00,
2013-05-20 21:21:00,63.5,54.0,29.54,South,175,0.0,-999.0,72,-99.99,,,0.44,weatherlink.com 1.10,2013-05-21 02:21:00,
2013-05-20 21:36:00,62.0,54.0,29.54,South,175,0.0,-999.0,76,-99.99,,,0.44,weatherlink.com 1.10,2013-05-21 02:36:00,
2013-05-20 21:51:00,60.9,54.0,29.55,South,175,0.0,-999.0,78,-99.99,,,0.44,weatherlink.com 1.10,2013-05-21 02:51:00,
2013-05-20 22:07:00,60.1,54.0,29.54,South,175,0.0,-999.0,80,-99.99,,,0.44,weatherlink.com 1.10,2013-05-21 03:07:00,
2013-05-20 22:21:00,59.6,54.0,29.53,South,175,0.0,-999.0,82,-99.99,,,0.44,weatherlink.com 1.10,2013-05-21 03:21:00,
2013-05-20 22:36:00,59.2,54.0,29.52,South,175,0.0,-999.0,84,-99.99,,,0.44,weatherlink.com 1.10,2013-05-21 03:36:00,
2013-05-20 22:51:00,58.7,54.0,29.50,South,175,0.0,-999.0,85,-99.99,,,0.44,weatherlink.com 1.10,2013-05-21 03:51:00,
2013-05-20 23:07:00,58.6,55.0,29.49,South,175,0.0,-999.0,86,-99.99,,,0.44,weatherlink.com 1.10,2013-05-21 04:07:00,
2013-05-20 23:22:00,58.3,55.0,29.48,South,175,0.0,-999.0,88,-99.99,,,0.44,weatherlink.com 1.10,2013-05-21 04:22:00,
2013-05-20 23:37:00,58.4,55.0,29.48,South,175,0.0,-999.0,89,-99.99,,,0.44,weatherlink.com 1.10,2013-05-21 04:37:00,
2013-05-20 23:52:00,58.6,56.0,29.47,South,175,0.0,-999.0,91,-99.99,,,0.44,weatherlink.com 1.10,2013-05-21 04:52:00,